sensor_id;sensor_type;location;lat;lon;timestamp;P1;durP1;ratioP1;P2;durP2;ratioP2
51499;SDS011;39101;53.478;6.158;2022-12-11T00:01:34;97.03;;;22.43;;
51499;SDS011;39101;53.478;6.158;2022-12-11T00:03:59;101.77;;;23.97;;
51499;SDS011;39101;53.478;6.158;2022-12-11T00:06:25;103.33;;;23.20;;
51499;SDS011;39101;53.478;6.158;2022-12-11T00:08:51;95.13;;;22.83;;
51499;SDS011;39101;53.478;6.158;2022-12-11T00:11:18;115.43;;;23.93;;
51499;SDS011;39101;53.478;6.158;2022-12-11T00:13:44;110.00;;;23.80;;
51499;SDS011;39101;53.478;6.158;2022-12-11T00:16:10;115.17;;;25.73;;
51499;SDS011;39101;53.478;6.158;2022-12-11T00:18:36;114.80;;;22.57;;
51499;SDS011;39101;53.478;6.158;2022-12-11T00:21:02;113.27;;;22.60;;
51499;SDS011;39101;53.478;6.158;2022-12-11T00:23:29;135.73;;;27.07;;
51499;SDS011;39101;53.478;6.158;2022-12-11T00:25:55;99.37;;;21.60;;
51499;SDS011;39101;53.478;6.158;2022-12-11T00:28:21;117.93;;;25.03;;
51499;SDS011;39101;53.478;6.158;2022-12-11T00:30:47;106.87;;;23.63;;
51499;SDS011;39101;53.478;6.158;2022-12-11T00:33:13;111.23;;;23.40;;
51499;SDS011;39101;53.478;6.158;2022-12-11T00:35:40;133.60;;;26.87;;
51499;SDS011;39101;53.478;6.158;2022-12-11T00:38:07;118.23;;;23.83;;
51499;SDS011;39101;53.478;6.158;2022-12-11T00:40:35;133.53;;;24.67;;
51499;SDS011;39101;53.478;6.158;2022-12-11T00:43:01;129.73;;;23.83;;
51499;SDS011;39101;53.478;6.158;2022-12-11T00:45:28;123.43;;;24.23;;
51499;SDS011;39101;53.478;6.158;2022-12-11T00:47:53;126.43;;;26.23;;
51499;SDS011;39101;53.478;6.158;2022-12-11T00:50:19;132.97;;;26.90;;
51499;SDS011;39101;53.478;6.158;2022-12-11T00:52:45;125.77;;;25.53;;
51499;SDS011;39101;53.478;6.158;2022-12-11T00:55:10;135.60;;;26.27;;
51499;SDS011;39101;53.478;6.158;2022-12-11T00:57:37;146.97;;;26.20;;
51499;SDS011;39101;53.478;6.158;2022-12-11T01:00:04;155.13;;;28.73;;
51499;SDS011;39101;53.478;6.158;2022-12-11T01:02:33;135.45;;;26.15;;
51499;SDS011;39101;53.478;6.158;2022-12-11T01:04:59;126.93;;;26.00;;
51499;SDS011;39101;53.478;6.158;2022-12-11T01:07:24;126.27;;;25.93;;
51499;SDS011;39101;53.478;6.158;2022-12-11T01:09:50;141.27;;;25.00;;
51499;SDS011;39101;53.478;6.158;2022-12-11T01:12:34;146.83;;;27.13;;
51499;SDS011;39101;53.478;6.158;2022-12-11T01:15:00;140.60;;;25.50;;
51499;SDS011;39101;53.478;6.158;2022-12-11T01:17:25;145.20;;;27.93;;
51499;SDS011;39101;53.478;6.158;2022-12-11T01:19:54;122.20;;;27.07;;
51499;SDS011;39101;53.478;6.158;2022-12-11T01:22:20;139.40;;;28.07;;
51499;SDS011;39101;53.478;6.158;2022-12-11T01:24:46;131.40;;;25.37;;
51499;SDS011;39101;53.478;6.158;2022-12-11T01:27:11;141.57;;;26.97;;
51499;SDS011;39101;53.478;6.158;2022-12-11T01:29:37;129.73;;;28.53;;
51499;SDS011;39101;53.478;6.158;2022-12-11T01:32:03;151.77;;;28.23;;
51499;SDS011;39101;53.478;6.158;2022-12-11T01:34:29;137.00;;;27.37;;
51499;SDS011;39101;53.478;6.158;2022-12-11T01:36:55;159.37;;;30.17;;
51499;SDS011;39101;53.478;6.158;2022-12-11T01:39:21;125.10;;;25.47;;
51499;SDS011;39101;53.478;6.158;2022-12-11T01:41:47;148.80;;;28.00;;
51499;SDS011;39101;53.478;6.158;2022-12-11T01:46:38;152.03;;;27.87;;
51499;SDS011;39101;53.478;6.158;2022-12-11T01:49:06;140.80;;;30.33;;
51499;SDS011;39101;53.478;6.158;2022-12-11T01:51:38;129.17;;;27.63;;
51499;SDS011;39101;53.478;6.158;2022-12-11T01:54:08;151.07;;;26.87;;
51499;SDS011;39101;53.478;6.158;2022-12-11T01:56:40;152.48;;;28.17;;
51499;SDS011;39101;53.478;6.158;2022-12-11T01:59:07;132.67;;;25.97;;
51499;SDS011;39101;53.478;6.158;2022-12-11T02:04:11;151.73;;;30.13;;
51499;SDS011;39101;53.478;6.158;2022-12-11T02:09:06;115.27;;;26.20;;
51499;SDS011;39101;53.478;6.158;2022-12-11T02:11:42;126.63;;;27.40;;
51499;SDS011;39101;53.478;6.158;2022-12-11T02:19:41;102.37;;;24.27;;
51499;SDS011;39101;53.478;6.158;2022-12-11T02:25:12;112.30;;;24.70;;
51499;SDS011;39101;53.478;6.158;2022-12-11T02:28:16;105.90;;;24.60;;
51499;SDS011;39101;53.478;6.158;2022-12-11T02:30:44;102.13;;;27.17;;
51499;SDS011;39101;53.478;6.158;2022-12-11T02:33:15;86.77;;;25.17;;
51499;SDS011;39101;53.478;6.158;2022-12-11T02:35:45;101.70;;;23.80;;
51499;SDS011;39101;53.478;6.158;2022-12-11T02:40:49;109.23;;;24.43;;
51499;SDS011;39101;53.478;6.158;2022-12-11T02:43:17;117.13;;;26.37;;
51499;SDS011;39101;53.478;6.158;2022-12-11T02:45:44;98.70;;;22.97;;
51499;SDS011;39101;53.478;6.158;2022-12-11T02:48:12;120.50;;;26.50;;
51499;SDS011;39101;53.478;6.158;2022-12-11T02:50:41;110.43;;;24.67;;
51499;SDS011;39101;53.478;6.158;2022-12-11T02:53:10;115.23;;;24.37;;
51499;SDS011;39101;53.478;6.158;2022-12-11T02:55:39;114.73;;;25.73;;
51499;SDS011;39101;53.478;6.158;2022-12-11T02:58:11;97.93;;;23.57;;
51499;SDS011;39101;53.478;6.158;2022-12-11T03:00:43;100.03;;;23.90;;
51499;SDS011;39101;53.478;6.158;2022-12-11T03:03:11;121.60;;;27.00;;
51499;SDS011;39101;53.478;6.158;2022-12-11T03:05:37;114.03;;;24.63;;
51499;SDS011;39101;53.478;6.158;2022-12-11T03:08:04;107.50;;;25.13;;
51499;SDS011;39101;53.478;6.158;2022-12-11T03:10:30;111.03;;;25.70;;
51499;SDS011;39101;53.478;6.158;2022-12-11T03:12:55;104.33;;;24.13;;
51499;SDS011;39101;53.478;6.158;2022-12-11T03:15:25;118.73;;;25.17;;
51499;SDS011;39101;53.478;6.158;2022-12-11T03:20:44;116.37;;;25.57;;
51499;SDS011;39101;53.478;6.158;2022-12-11T03:31:08;99.77;;;24.67;;
51499;SDS011;39101;53.478;6.158;2022-12-11T03:36:12;124.03;;;25.80;;
51499;SDS011;39101;53.478;6.158;2022-12-11T03:38:50;115.63;;;25.93;;
51499;SDS011;39101;53.478;6.158;2022-12-11T03:41:21;106.07;;;25.13;;
51499;SDS011;39101;53.478;6.158;2022-12-11T03:43:50;114.90;;;25.33;;
51499;SDS011;39101;53.478;6.158;2022-12-11T03:46:21;126.00;;;28.77;;
51499;SDS011;39101;53.478;6.158;2022-12-11T03:51:17;102.40;;;25.77;;
51499;SDS011;39101;53.478;6.158;2022-12-11T03:53:44;100.17;;;25.33;;
51499;SDS011;39101;53.478;6.158;2022-12-11T03:56:11;123.00;;;27.00;;
51499;SDS011;39101;53.478;6.158;2022-12-11T03:58:39;124.23;;;26.03;;
51499;SDS011;39101;53.478;6.158;2022-12-11T04:01:09;112.47;;;25.40;;
51499;SDS011;39101;53.478;6.158;2022-12-11T04:03:35;103.82;;;26.52;;
51499;SDS011;39101;53.478;6.158;2022-12-11T04:06:01;107.33;;;26.10;;
51499;SDS011;39101;53.478;6.158;2022-12-11T04:08:27;117.47;;;27.90;;
51499;SDS011;39101;53.478;6.158;2022-12-11T04:10:53;113.70;;;25.97;;
51499;SDS011;39101;53.478;6.158;2022-12-11T04:13:38;87.97;;;22.73;;
51499;SDS011;39101;53.478;6.158;2022-12-11T04:16:04;104.60;;;26.43;;
51499;SDS011;39101;53.478;6.158;2022-12-11T04:18:30;108.80;;;26.63;;
51499;SDS011;39101;53.478;6.158;2022-12-11T04:21:15;110.67;;;28.37;;
51499;SDS011;39101;53.478;6.158;2022-12-11T04:23:59;129.63;;;30.80;;
51499;SDS011;39101;53.478;6.158;2022-12-11T04:26:41;128.47;;;26.80;;
51499;SDS011;39101;53.478;6.158;2022-12-11T04:29:10;118.57;;;27.38;;
51499;SDS011;39101;53.478;6.158;2022-12-11T04:31:37;143.20;;;29.40;;
51499;SDS011;39101;53.478;6.158;2022-12-11T04:34:02;115.83;;;27.87;;
51499;SDS011;39101;53.478;6.158;2022-12-11T04:36:28;118.87;;;26.73;;
51499;SDS011;39101;53.478;6.158;2022-12-11T04:38:54;108.97;;;26.47;;
51499;SDS011;39101;53.478;6.158;2022-12-11T04:41:19;116.20;;;26.53;;
51499;SDS011;39101;53.478;6.158;2022-12-11T04:43:45;116.53;;;27.30;;
51499;SDS011;39101;53.478;6.158;2022-12-11T04:46:21;140.67;;;28.30;;
51499;SDS011;39101;53.478;6.158;2022-12-11T04:48:48;110.50;;;26.53;;
51499;SDS011;39101;53.478;6.158;2022-12-11T04:51:15;127.87;;;28.07;;
51499;SDS011;39101;53.478;6.158;2022-12-11T04:53:40;111.63;;;26.53;;
51499;SDS011;39101;53.478;6.158;2022-12-11T04:56:07;97.70;;;26.70;;
51499;SDS011;39101;53.478;6.158;2022-12-11T04:58:34;98.10;;;26.20;;
51499;SDS011;39101;53.478;6.158;2022-12-11T05:01:00;119.00;;;27.17;;
51499;SDS011;39101;53.478;6.158;2022-12-11T05:03:31;118.90;;;26.83;;
51499;SDS011;39101;53.478;6.158;2022-12-11T05:05:57;124.87;;;29.50;;
51499;SDS011;39101;53.478;6.158;2022-12-11T05:08:22;101.07;;;28.87;;
51499;SDS011;39101;53.478;6.158;2022-12-11T05:10:58;106.73;;;26.57;;
51499;SDS011;39101;53.478;6.158;2022-12-11T05:13:25;116.20;;;28.10;;
51499;SDS011;39101;53.478;6.158;2022-12-11T05:15:51;105.43;;;24.87;;
51499;SDS011;39101;53.478;6.158;2022-12-11T05:18:17;102.50;;;26.63;;
51499;SDS011;39101;53.478;6.158;2022-12-11T05:20:43;107.70;;;25.77;;
51499;SDS011;39101;53.478;6.158;2022-12-11T05:23:09;112.73;;;26.10;;
51499;SDS011;39101;53.478;6.158;2022-12-11T05:25:34;122.73;;;27.43;;
51499;SDS011;39101;53.478;6.158;2022-12-11T05:28:00;108.13;;;27.10;;
51499;SDS011;39101;53.478;6.158;2022-12-11T05:30:26;100.97;;;26.43;;
51499;SDS011;39101;53.478;6.158;2022-12-11T05:32:51;122.30;;;25.93;;
51499;SDS011;39101;53.478;6.158;2022-12-11T05:35:17;105.67;;;26.37;;
51499;SDS011;39101;53.478;6.158;2022-12-11T05:37:42;123.03;;;29.00;;
51499;SDS011;39101;53.478;6.158;2022-12-11T05:40:09;113.50;;;26.03;;
51499;SDS011;39101;53.478;6.158;2022-12-11T05:42:36;115.00;;;26.43;;
51499;SDS011;39101;53.478;6.158;2022-12-11T05:45:02;121.70;;;28.33;;
51499;SDS011;39101;53.478;6.158;2022-12-11T05:47:29;108.47;;;26.53;;
51499;SDS011;39101;53.478;6.158;2022-12-11T05:49:55;116.53;;;26.17;;
51499;SDS011;39101;53.478;6.158;2022-12-11T05:52:21;108.53;;;26.40;;
51499;SDS011;39101;53.478;6.158;2022-12-11T05:54:47;106.87;;;24.47;;
51499;SDS011;39101;53.478;6.158;2022-12-11T05:57:14;114.97;;;27.83;;
51499;SDS011;39101;53.478;6.158;2022-12-11T05:59:40;98.93;;;25.50;;
51499;SDS011;39101;53.478;6.158;2022-12-11T06:02:06;98.13;;;26.00;;
51499;SDS011;39101;53.478;6.158;2022-12-11T06:04:32;125.67;;;28.23;;
51499;SDS011;39101;53.478;6.158;2022-12-11T06:06:57;115.43;;;29.47;;
51499;SDS011;39101;53.478;6.158;2022-12-11T06:09:23;120.13;;;27.13;;
51499;SDS011;39101;53.478;6.158;2022-12-11T06:11:49;102.17;;;25.37;;
51499;SDS011;39101;53.478;6.158;2022-12-11T06:14:14;127.27;;;27.40;;
51499;SDS011;39101;53.478;6.158;2022-12-11T06:16:40;125.07;;;26.47;;
51499;SDS011;39101;53.478;6.158;2022-12-11T06:19:06;124.87;;;25.60;;
51499;SDS011;39101;53.478;6.158;2022-12-11T06:21:36;132.33;;;29.77;;
51499;SDS011;39101;53.478;6.158;2022-12-11T06:24:02;121.93;;;24.97;;
51499;SDS011;39101;53.478;6.158;2022-12-11T06:26:29;123.33;;;29.47;;
51499;SDS011;39101;53.478;6.158;2022-12-11T06:28:56;140.03;;;28.57;;
51499;SDS011;39101;53.478;6.158;2022-12-11T06:31:22;109.83;;;26.73;;
51499;SDS011;39101;53.478;6.158;2022-12-11T06:33:47;123.33;;;28.33;;
51499;SDS011;39101;53.478;6.158;2022-12-11T06:36:14;109.43;;;27.20;;
51499;SDS011;39101;53.478;6.158;2022-12-11T06:38:42;123.20;;;28.80;;
51499;SDS011;39101;53.478;6.158;2022-12-11T06:41:08;121.40;;;25.37;;
51499;SDS011;39101;53.478;6.158;2022-12-11T06:43:34;119.83;;;28.63;;
51499;SDS011;39101;53.478;6.158;2022-12-11T06:46:02;121.83;;;26.97;;
51499;SDS011;39101;53.478;6.158;2022-12-11T06:48:32;124.30;;;28.40;;
51499;SDS011;39101;53.478;6.158;2022-12-11T06:50:58;141.07;;;29.90;;
51499;SDS011;39101;53.478;6.158;2022-12-11T06:53:24;135.43;;;30.27;;
51499;SDS011;39101;53.478;6.158;2022-12-11T06:55:49;120.57;;;28.17;;
51499;SDS011;39101;53.478;6.158;2022-12-11T06:58:15;144.17;;;29.87;;
51499;SDS011;39101;53.478;6.158;2022-12-11T07:00:41;129.67;;;28.17;;
51499;SDS011;39101;53.478;6.158;2022-12-11T07:03:06;129.60;;;28.87;;
51499;SDS011;39101;53.478;6.158;2022-12-11T07:05:33;120.20;;;27.27;;
51499;SDS011;39101;53.478;6.158;2022-12-11T07:07:59;109.83;;;28.00;;
51499;SDS011;39101;53.478;6.158;2022-12-11T07:10:26;103.30;;;25.40;;
51499;SDS011;39101;53.478;6.158;2022-12-11T07:12:52;102.50;;;26.03;;
51499;SDS011;39101;53.478;6.158;2022-12-11T07:15:18;105.90;;;26.40;;
51499;SDS011;39101;53.478;6.158;2022-12-11T07:17:44;112.40;;;26.43;;
51499;SDS011;39101;53.478;6.158;2022-12-11T07:20:09;114.27;;;27.63;;
51499;SDS011;39101;53.478;6.158;2022-12-11T07:22:35;95.63;;;25.97;;
51499;SDS011;39101;53.478;6.158;2022-12-11T07:25:01;87.90;;;26.47;;
51499;SDS011;39101;53.478;6.158;2022-12-11T07:27:27;86.60;;;25.70;;
51499;SDS011;39101;53.478;6.158;2022-12-11T07:29:53;85.87;;;24.77;;
51499;SDS011;39101;53.478;6.158;2022-12-11T07:32:19;97.60;;;25.43;;
51499;SDS011;39101;53.478;6.158;2022-12-11T07:34:47;87.07;;;23.53;;
51499;SDS011;39101;53.478;6.158;2022-12-11T07:37:13;86.27;;;25.20;;
51499;SDS011;39101;53.478;6.158;2022-12-11T07:39:39;96.93;;;24.47;;
51499;SDS011;39101;53.478;6.158;2022-12-11T07:42:05;93.37;;;25.67;;
51499;SDS011;39101;53.478;6.158;2022-12-11T07:44:30;84.90;;;24.07;;
51499;SDS011;39101;53.478;6.158;2022-12-11T07:46:57;87.00;;;24.30;;
51499;SDS011;39101;53.478;6.158;2022-12-11T07:49:22;94.93;;;25.33;;
51499;SDS011;39101;53.478;6.158;2022-12-11T07:51:48;79.73;;;25.13;;
51499;SDS011;39101;53.478;6.158;2022-12-11T07:54:14;81.30;;;25.20;;
51499;SDS011;39101;53.478;6.158;2022-12-11T07:56:41;87.40;;;24.17;;
51499;SDS011;39101;53.478;6.158;2022-12-11T07:59:11;92.87;;;27.27;;
51499;SDS011;39101;53.478;6.158;2022-12-11T08:01:37;90.23;;;26.17;;
51499;SDS011;39101;53.478;6.158;2022-12-11T08:04:04;90.87;;;24.83;;
51499;SDS011;39101;53.478;6.158;2022-12-11T08:06:32;85.40;;;23.53;;
51499;SDS011;39101;53.478;6.158;2022-12-11T08:09:00;87.90;;;22.70;;
51499;SDS011;39101;53.478;6.158;2022-12-11T08:11:28;80.43;;;23.07;;
51499;SDS011;39101;53.478;6.158;2022-12-11T08:13:54;94.33;;;25.40;;
51499;SDS011;39101;53.478;6.158;2022-12-11T08:16:20;78.27;;;25.23;;
51499;SDS011;39101;53.478;6.158;2022-12-11T08:18:46;89.00;;;24.33;;
51499;SDS011;39101;53.478;6.158;2022-12-11T08:21:13;79.47;;;23.47;;
51499;SDS011;39101;53.478;6.158;2022-12-11T08:23:41;79.83;;;24.03;;
51499;SDS011;39101;53.478;6.158;2022-12-11T08:26:08;86.60;;;24.20;;
51499;SDS011;39101;53.478;6.158;2022-12-11T08:28:37;89.47;;;24.13;;
51499;SDS011;39101;53.478;6.158;2022-12-11T08:31:03;92.23;;;25.10;;
51499;SDS011;39101;53.478;6.158;2022-12-11T08:33:30;87.67;;;23.60;;
51499;SDS011;39101;53.478;6.158;2022-12-11T08:35:56;91.10;;;24.70;;
51499;SDS011;39101;53.478;6.158;2022-12-11T08:38:22;82.20;;;23.20;;
51499;SDS011;39101;53.478;6.158;2022-12-11T08:40:48;88.23;;;25.03;;
51499;SDS011;39101;53.478;6.158;2022-12-11T08:43:13;84.63;;;23.57;;
51499;SDS011;39101;53.478;6.158;2022-12-11T08:45:39;88.67;;;26.67;;
51499;SDS011;39101;53.478;6.158;2022-12-11T08:48:05;89.40;;;25.13;;
51499;SDS011;39101;53.478;6.158;2022-12-11T08:50:30;88.77;;;25.53;;
51499;SDS011;39101;53.478;6.158;2022-12-11T08:52:56;82.30;;;23.97;;
51499;SDS011;39101;53.478;6.158;2022-12-11T08:55:22;83.20;;;24.10;;
51499;SDS011;39101;53.478;6.158;2022-12-11T08:57:47;83.33;;;25.40;;
51499;SDS011;39101;53.478;6.158;2022-12-11T09:00:13;87.93;;;23.60;;
51499;SDS011;39101;53.478;6.158;2022-12-11T09:02:40;69.43;;;24.77;;
51499;SDS011;39101;53.478;6.158;2022-12-11T09:05:05;78.83;;;23.13;;
51499;SDS011;39101;53.478;6.158;2022-12-11T09:07:33;78.50;;;23.90;;
51499;SDS011;39101;53.478;6.158;2022-12-11T09:09:59;77.50;;;24.60;;
51499;SDS011;39101;53.478;6.158;2022-12-11T09:12:26;85.53;;;23.43;;
51499;SDS011;39101;53.478;6.158;2022-12-11T09:14:52;79.73;;;24.43;;
51499;SDS011;39101;53.478;6.158;2022-12-11T09:17:17;81.40;;;25.67;;
51499;SDS011;39101;53.478;6.158;2022-12-11T09:19:43;84.00;;;24.67;;
51499;SDS011;39101;53.478;6.158;2022-12-11T09:22:09;89.63;;;25.00;;
51499;SDS011;39101;53.478;6.158;2022-12-11T09:24:35;83.60;;;25.60;;
51499;SDS011;39101;53.478;6.158;2022-12-11T09:27:02;74.53;;;24.40;;
51499;SDS011;39101;53.478;6.158;2022-12-11T09:29:28;81.87;;;24.63;;
51499;SDS011;39101;53.478;6.158;2022-12-11T09:31:54;78.17;;;25.40;;
51499;SDS011;39101;53.478;6.158;2022-12-11T09:34:19;80.20;;;23.50;;
51499;SDS011;39101;53.478;6.158;2022-12-11T09:36:46;69.33;;;22.60;;
51499;SDS011;39101;53.478;6.158;2022-12-11T09:39:12;73.70;;;22.83;;
51499;SDS011;39101;53.478;6.158;2022-12-11T09:41:47;70.87;;;24.27;;
51499;SDS011;39101;53.478;6.158;2022-12-11T09:44:33;70.83;;;23.93;;
51499;SDS011;39101;53.478;6.158;2022-12-11T09:47:15;72.90;;;24.53;;
51499;SDS011;39101;53.478;6.158;2022-12-11T09:49:46;84.93;;;24.43;;
51499;SDS011;39101;53.478;6.158;2022-12-11T09:55:23;74.27;;;23.97;;
51499;SDS011;39101;53.478;6.158;2022-12-11T10:06:01;85.90;;;24.38;;
51499;SDS011;39101;53.478;6.158;2022-12-11T10:09:11;87.77;;;24.30;;
51499;SDS011;39101;53.478;6.158;2022-12-11T10:17:30;86.72;;;25.67;;
51499;SDS011;39101;53.478;6.158;2022-12-11T10:20:15;84.60;;;24.70;;
51499;SDS011;39101;53.478;6.158;2022-12-11T10:22:51;82.00;;;26.80;;
51499;SDS011;39101;53.478;6.158;2022-12-11T10:25:22;84.50;;;25.90;;
51499;SDS011;39101;53.478;6.158;2022-12-11T10:27:52;95.07;;;27.83;;
51499;SDS011;39101;53.478;6.158;2022-12-11T10:30:22;81.13;;;24.17;;
51499;SDS011;39101;53.478;6.158;2022-12-11T10:35:39;77.67;;;24.23;;
51499;SDS011;39101;53.478;6.158;2022-12-11T10:38:42;89.37;;;26.03;;
51499;SDS011;39101;53.478;6.158;2022-12-11T10:41:13;89.27;;;26.03;;
51499;SDS011;39101;53.478;6.158;2022-12-11T10:43:43;95.13;;;27.60;;
51499;SDS011;39101;53.478;6.158;2022-12-11T10:48:54;90.97;;;27.97;;
51499;SDS011;39101;53.478;6.158;2022-12-11T10:51:21;81.07;;;26.03;;
51499;SDS011;39101;53.478;6.158;2022-12-11T10:53:50;77.67;;;26.90;;
51499;SDS011;39101;53.478;6.158;2022-12-11T10:56:25;96.40;;;27.83;;
51499;SDS011;39101;53.478;6.158;2022-12-11T10:58:52;74.97;;;23.67;;
51499;SDS011;39101;53.478;6.158;2022-12-11T11:01:20;74.87;;;25.00;;
51499;SDS011;39101;53.478;6.158;2022-12-11T11:06:43;66.93;;;23.67;;
51499;SDS011;39101;53.478;6.158;2022-12-11T11:12:00;74.40;;;24.83;;
51499;SDS011;39101;53.478;6.158;2022-12-11T11:14:26;68.87;;;24.40;;
51499;SDS011;39101;53.478;6.158;2022-12-11T11:16:56;74.27;;;25.83;;
51499;SDS011;39101;53.478;6.158;2022-12-11T11:19:29;72.57;;;25.20;;
51499;SDS011;39101;53.478;6.158;2022-12-11T11:22:07;76.73;;;26.27;;
51499;SDS011;39101;53.478;6.158;2022-12-11T11:24:39;67.77;;;24.57;;
51499;SDS011;39101;53.478;6.158;2022-12-11T11:27:12;72.40;;;23.25;;
51499;SDS011;39101;53.478;6.158;2022-12-11T11:29:38;71.78;;;24.08;;
51499;SDS011;39101;53.478;6.158;2022-12-11T11:32:15;77.80;;;24.87;;
51499;SDS011;39101;53.478;6.158;2022-12-11T11:34:46;64.50;;;23.63;;
51499;SDS011;39101;53.478;6.158;2022-12-11T11:37:23;59.03;;;25.27;;
51499;SDS011;39101;53.478;6.158;2022-12-11T11:39:54;73.20;;;25.63;;
51499;SDS011;39101;53.478;6.158;2022-12-11T11:42:34;63.80;;;24.17;;
51499;SDS011;39101;53.478;6.158;2022-12-11T11:45:25;63.33;;;23.83;;
51499;SDS011;39101;53.478;6.158;2022-12-11T11:48:16;65.57;;;24.43;;
51499;SDS011;39101;53.478;6.158;2022-12-11T11:50:51;61.23;;;22.97;;
51499;SDS011;39101;53.478;6.158;2022-12-11T11:53:30;67.30;;;24.83;;
51499;SDS011;39101;53.478;6.158;2022-12-11T11:56:18;62.40;;;22.63;;
51499;SDS011;39101;53.478;6.158;2022-12-11T11:58:58;62.87;;;22.10;;
51499;SDS011;39101;53.478;6.158;2022-12-11T12:01:35;63.07;;;23.70;;
51499;SDS011;39101;53.478;6.158;2022-12-11T12:04:01;61.43;;;22.37;;
51499;SDS011;39101;53.478;6.158;2022-12-11T12:06:38;53.70;;;22.83;;
51499;SDS011;39101;53.478;6.158;2022-12-11T12:20:59;51.33;;;21.50;;
51499;SDS011;39101;53.478;6.158;2022-12-11T12:29:09;54.37;;;21.30;;
51499;SDS011;39101;53.478;6.158;2022-12-11T12:45:36;53.20;;;21.30;;
51499;SDS011;39101;53.478;6.158;2022-12-11T12:48:03;50.47;;;20.92;;
51499;SDS011;39101;53.478;6.158;2022-12-11T12:50:35;51.10;;;22.10;;
51499;SDS011;39101;53.478;6.158;2022-12-11T12:53:05;52.20;;;22.97;;
51499;SDS011;39101;53.478;6.158;2022-12-11T12:55:32;48.30;;;22.27;;
51499;SDS011;39101;53.478;6.158;2022-12-11T12:58:00;53.57;;;22.60;;
51499;SDS011;39101;53.478;6.158;2022-12-11T13:00:33;54.27;;;21.60;;
51499;SDS011;39101;53.478;6.158;2022-12-11T13:05:44;58.73;;;25.07;;
51499;SDS011;39101;53.478;6.158;2022-12-11T13:08:29;53.03;;;21.00;;
51499;SDS011;39101;53.478;6.158;2022-12-11T13:11:02;57.83;;;23.57;;
51499;SDS011;39101;53.478;6.158;2022-12-11T13:13:36;51.38;;;21.85;;
51499;SDS011;39101;53.478;6.158;2022-12-11T13:18:39;53.70;;;22.87;;
51499;SDS011;39101;53.478;6.158;2022-12-11T13:23:51;56.17;;;23.03;;
51499;SDS011;39101;53.478;6.158;2022-12-11T13:26:27;48.73;;;22.03;;
51499;SDS011;39101;53.478;6.158;2022-12-11T13:28:54;57.00;;;24.00;;
51499;SDS011;39101;53.478;6.158;2022-12-11T13:33:53;54.40;;;22.87;;
51499;SDS011;39101;53.478;6.158;2022-12-11T13:36:34;56.00;;;23.17;;
51499;SDS011;39101;53.478;6.158;2022-12-11T13:41:27;53.87;;;23.50;;
51499;SDS011;39101;53.478;6.158;2022-12-11T13:43:56;56.87;;;23.73;;
51499;SDS011;39101;53.478;6.158;2022-12-11T13:46:23;60.77;;;26.30;;
51499;SDS011;39101;53.478;6.158;2022-12-11T13:48:53;51.92;;;21.77;;
51499;SDS011;39101;53.478;6.158;2022-12-11T13:51:25;59.33;;;23.50;;
51499;SDS011;39101;53.478;6.158;2022-12-11T13:54:10;58.60;;;23.60;;
51499;SDS011;39101;53.478;6.158;2022-12-11T13:56:39;55.00;;;23.37;;
51499;SDS011;39101;53.478;6.158;2022-12-11T13:59:25;49.57;;;20.63;;
51499;SDS011;39101;53.478;6.158;2022-12-11T14:01:53;57.97;;;23.40;;
51499;SDS011;39101;53.478;6.158;2022-12-11T14:04:21;49.40;;;21.10;;
51499;SDS011;39101;53.478;6.158;2022-12-11T14:06:49;53.30;;;24.07;;
51499;SDS011;39101;53.478;6.158;2022-12-11T14:09:16;55.10;;;22.23;;
51499;SDS011;39101;53.478;6.158;2022-12-11T14:11:45;48.80;;;22.33;;
51499;SDS011;39101;53.478;6.158;2022-12-11T14:14:19;55.03;;;21.77;;
51499;SDS011;39101;53.478;6.158;2022-12-11T14:17:05;52.47;;;22.33;;
51499;SDS011;39101;53.478;6.158;2022-12-11T14:19:35;56.13;;;24.23;;
51499;SDS011;39101;53.478;6.158;2022-12-11T14:22:02;52.40;;;23.57;;
51499;SDS011;39101;53.478;6.158;2022-12-11T14:24:29;53.07;;;21.87;;
51499;SDS011;39101;53.478;6.158;2022-12-11T14:26:56;59.17;;;23.17;;
51499;SDS011;39101;53.478;6.158;2022-12-11T14:29:29;60.47;;;23.83;;
51499;SDS011;39101;53.478;6.158;2022-12-11T14:31:58;55.77;;;22.70;;
51499;SDS011;39101;53.478;6.158;2022-12-11T14:34:35;53.73;;;23.00;;
51499;SDS011;39101;53.478;6.158;2022-12-11T14:37:08;52.58;;;22.58;;
51499;SDS011;39101;53.478;6.158;2022-12-11T14:39:40;50.47;;;22.07;;
51499;SDS011;39101;53.478;6.158;2022-12-11T14:44:53;52.97;;;22.07;;
51499;SDS011;39101;53.478;6.158;2022-12-11T14:47:26;55.60;;;23.33;;
51499;SDS011;39101;53.478;6.158;2022-12-11T14:53:12;47.13;;;21.90;;
51499;SDS011;39101;53.478;6.158;2022-12-11T14:55:21;58.00;;;23.77;;
51499;SDS011;39101;53.478;6.158;2022-12-11T14:58:03;55.00;;;24.03;;
51499;SDS011;39101;53.478;6.158;2022-12-11T15:00:32;55.80;;;23.13;;
51499;SDS011;39101;53.478;6.158;2022-12-11T15:05:28;59.57;;;23.50;;
51499;SDS011;39101;53.478;6.158;2022-12-11T15:07:59;58.33;;;23.97;;
51499;SDS011;39101;53.478;6.158;2022-12-11T15:10:31;49.67;;;22.27;;
51499;SDS011;39101;53.478;6.158;2022-12-11T15:13:01;54.50;;;23.93;;
51499;SDS011;39101;53.478;6.158;2022-12-11T15:15:28;59.67;;;22.70;;
51499;SDS011;39101;53.478;6.158;2022-12-11T15:17:57;56.80;;;24.00;;
51499;SDS011;39101;53.478;6.158;2022-12-11T15:20:27;56.70;;;22.67;;
51499;SDS011;39101;53.478;6.158;2022-12-11T15:22:55;56.40;;;23.20;;
51499;SDS011;39101;53.478;6.158;2022-12-11T15:25:25;54.50;;;22.20;;
51499;SDS011;39101;53.478;6.158;2022-12-11T15:27:57;55.60;;;23.53;;
51499;SDS011;39101;53.478;6.158;2022-12-11T15:30:25;51.70;;;23.10;;
51499;SDS011;39101;53.478;6.158;2022-12-11T15:35:34;52.63;;;22.67;;
51499;SDS011;39101;53.478;6.158;2022-12-11T15:38:01;53.77;;;23.07;;
51499;SDS011;39101;53.478;6.158;2022-12-11T15:40:27;52.57;;;24.17;;
51499;SDS011;39101;53.478;6.158;2022-12-11T15:42:53;53.67;;;23.00;;
51499;SDS011;39101;53.478;6.158;2022-12-11T15:45:22;55.33;;;22.30;;
51499;SDS011;39101;53.478;6.158;2022-12-11T15:47:50;50.35;;;22.15;;
51499;SDS011;39101;53.478;6.158;2022-12-11T15:50:23;46.07;;;21.07;;
51499;SDS011;39101;53.478;6.158;2022-12-11T15:52:51;47.50;;;21.27;;
51499;SDS011;39101;53.478;6.158;2022-12-11T15:55:18;47.33;;;22.00;;
51499;SDS011;39101;53.478;6.158;2022-12-11T15:57:49;45.30;;;21.63;;
51499;SDS011;39101;53.478;6.158;2022-12-11T16:00:20;46.10;;;20.73;;
51499;SDS011;39101;53.478;6.158;2022-12-11T16:02:47;47.10;;;21.23;;
51499;SDS011;39101;53.478;6.158;2022-12-11T16:05:14;49.67;;;23.07;;
51499;SDS011;39101;53.478;6.158;2022-12-11T16:07:40;48.73;;;20.40;;
51499;SDS011;39101;53.478;6.158;2022-12-11T16:10:06;47.57;;;21.43;;
51499;SDS011;39101;53.478;6.158;2022-12-11T16:12:34;43.27;;;20.80;;
51499;SDS011;39101;53.478;6.158;2022-12-11T16:15:00;44.83;;;21.07;;
51499;SDS011;39101;53.478;6.158;2022-12-11T16:17:26;41.20;;;21.63;;
51499;SDS011;39101;53.478;6.158;2022-12-11T16:19:52;45.30;;;21.33;;
51499;SDS011;39101;53.478;6.158;2022-12-11T16:22:18;44.80;;;20.57;;
51499;SDS011;39101;53.478;6.158;2022-12-11T16:24:43;41.80;;;20.63;;